Time;durP1;ratioP1;P1;durP2;ratioP2;P2;SDS_P1;SDS_P2;PMS_P1;PMS_P2;Temp;Humidity;BMP_temperature;BMP_pressure;BME280_temperature;BME280_humidity;BME280_pressure;Samples;Min_cycle;Max_cycle;Signal;HPM_P1;HPM_P2
2022/02/14 00:00:17;;;;;;;9.95;3.90;;;;;;;11.35;78.10;99833.31;5101921;28;20467;-73
2022/02/14 00:02:43;;;;;;;8.75;3.65;;;;;;;11.37;77.47;99831.56;5105061;28;20070;-73
2022/02/14 00:05:10;;;;;;;8.65;3.67;;;;;;;11.39;77.56;99845.59;5081034;28;20034;-73
2022/02/14 00:07:35;;;;;;;10.88;4.50;;;;;;;11.36;77.66;99840.34;5102042;28;20036;-74
2022/02/14 00:10:01;;;;;;;12.82;4.03;;;;;;;11.36;77.58;99832.44;5086900;27;20078;-74
2022/02/14 00:12:26;;;;;;;13.27;4.05;;;;;;;11.44;77.29;99822.75;5105265;27;20458;-74
2022/02/14 00:14:52;;;;;;;18.15;4.53;;;;;;;11.37;77.57;99821.03;5107112;28;20051;-74
2022/02/14 00:17:17;;;;;;;7.55;3.90;;;;;;;11.45;77.08;99821.00;5095506;28;20071;-74
2022/02/14 00:19:42;;;;;;;11.95;4.22;;;;;;;11.50;76.92;99811.31;5103053;28;20055;-72
2022/02/14 00:22:08;;;;;;;16.45;3.92;;;;;;;11.45;77.12;99808.69;5108265;28;20066;-72
2022/02/14 00:24:33;;;;;;;11.05;4.20;;;;;;;11.47;77.11;99820.09;5102063;28;20059;-73
2022/02/14 00:26:58;;;;;;;20.20;4.75;;;;;;;11.49;76.89;99801.66;5107545;28;20038;-73
2022/02/14 00:29:24;;;;;;;12.70;3.72;;;;;;;11.50;77.17;99799.91;5077746;28;20027;-73
2022/02/14 00:31:49;;;;;;;15.50;4.32;;;;;;;11.53;77.16;99805.16;5098478;28;20028;-73
2022/02/14 00:34:15;;;;;;;7.53;4.00;;;;;;;11.52;77.28;99808.69;5100814;28;20035;-73
2022/02/14 00:36:42;;;;;;;8.82;3.60;;;;;;;11.49;77.39;99799.03;5096366;28;20043;-74
2022/02/14 00:39:08;;;;;;;10.60;4.05;;;;;;;11.56;76.94;99779.69;5097024;28;20027;-73
2022/02/14 00:41:33;;;;;;;14.32;4.47;;;;;;;11.58;77.11;99784.94;5103777;28;20373;-74
2022/02/14 00:43:59;;;;;;;13.88;4.65;;;;;;;11.53;77.33;99769.16;5102243;28;20024;-73
2022/02/14 00:46:24;;;;;;;13.30;4.25;;;;;;;11.58;77.32;99777.03;5095128;28;20039;-73
2022/02/14 00:48:50;;;;;;;6.88;3.45;;;;;;;11.54;77.42;99768.25;5099641;28;20044;-73
2022/02/14 00:51:15;;;;;;;14.85;4.10;;;;;;;11.54;78.03;99770.03;5102998;28;20644;-73
2022/02/14 00:53:41;;;;;;;12.65;4.70;;;;;;;11.55;77.51;99766.50;5083425;28;20048;-73
2022/02/14 00:56:06;;;;;;;11.05;4.18;;;;;;;11.55;77.57;99753.34;5108711;28;20442;-73
2022/02/14 00:58:31;;;;;;;13.55;4.68;;;;;;;11.54;77.44;99759.47;5108979;28;20031;-73
2022/02/14 01:00:57;;;;;;;15.40;3.95;;;;;;;11.57;77.33;99748.91;5095500;28;20020;-73
2022/02/14 01:03:22;;;;;;;8.05;3.90;;;;;;;11.60;77.08;99748.94;5108111;28;20046;-73
2022/02/14 01:05:48;;;;;;;12.85;4.10;;;;;;;11.62;77.02;99750.69;5103159;28;20044;-73
2022/02/14 01:08:13;;;;;;;15.50;5.20;;;;;;;11.66;76.99;99751.50;5096530;28;20049;-73
2022/02/14 01:10:38;;;;;;;16.20;4.40;;;;;;;11.57;77.26;99725.22;5098716;28;20024;-73
2022/02/14 01:13:04;;;;;;;13.85;4.25;;;;;;;11.57;77.19;99725.22;5099297;28;20034;-73
2022/02/14 01:15:30;;;;;;;12.38;4.43;;;;;;;11.61;77.33;99721.66;5102145;28;20024;-73
2022/02/14 01:17:56;;;;;;;12.00;4.43;;;;;;;11.62;76.64;99712.88;5077459;28;20028;-73
2022/02/14 01:20:21;;;;;;;11.40;3.80;;;;;;;11.60;77.07;99706.78;5083279;28;20477;-74
2022/02/14 01:22:46;;;;;;;14.18;4.85;;;;;;;11.58;77.21;99703.25;5103611;28;20098;-73
2022/02/14 01:25:13;;;;;;;9.35;4.82;;;;;;;11.54;77.52;99696.25;5098751;28;20036;-73
2022/02/14 01:27:38;;;;;;;11.88;4.28;;;;;;;11.55;77.32;99688.34;5103609;28;20020;-73
2022/02/14 01:30:06;;;;;;;8.90;4.25;;;;;;;11.57;77.27;99689.22;5081233;28;20122;-73
2022/02/14 01:32:32;;;;;;;12.07;4.38;;;;;;;11.59;77.29;99679.53;5098279;28;20046;-73
2022/02/14 01:34:57;;;;;;;12.57;4.45;;;;;;;11.53;77.58;99666.41;5101312;28;20512;-73
2022/02/14 01:37:22;;;;;;;10.52;4.13;;;;;;;11.49;77.74;99667.31;5084659;28;20028;-73
2022/02/14 01:39:48;;;;;;;11.23;3.92;;;;;;;11.47;77.79;99667.31;5101006;28;20059;-73
2022/02/14 01:42:14;;;;;;;9.93;4.43;;;;;;;11.54;77.38;99664.63;5104458;28;20161;-73
2022/02/14 01:44:46;;;;;;;10.93;4.68;;;;;;;11.53;77.62;99660.25;5096861;28;20027;-73
2022/02/14 01:47:16;;;;;;;9.27;4.38;;;;;;;11.50;77.77;99666.41;5085663;28;20441;-73
2022/02/14 01:49:43;;;;;;;10.82;3.25;;;;;;;11.46;77.99;99677.84;5100205;28;20114;-73
2022/02/14 01:52:09;;;;;;;11.63;3.70;;;;;;;11.50;77.71;99637.44;5075943;28;20058;-73
2022/02/14 01:54:36;;;;;;;14.40;4.45;;;;;;;11.50;78.00;99644.47;5076030;28;20488;-73
2022/02/14 01:57:02;;;;;;;11.02;3.67;;;;;;;11.46;78.05;99639.22;5079781;28;20024;-73
2022/02/14 01:59:28;;;;;;;10.27;3.47;;;;;;;11.50;77.84;99642.69;5076569;28;20043;-73
2022/02/14 02:01:53;;;;;;;8.40;3.10;;;;;;;11.48;78.12;99650.63;5081696;28;20017;-73
2022/02/14 02:04:18;;;;;;;7.03;3.00;;;;;;;11.48;77.87;99640.06;5079469;28;20040;-73
2022/02/14 02:06:44;;;;;;;10.27;3.28;;;;;;;11.45;77.86;99644.50;5074113;28;20032;-74
2022/02/14 02:09:09;;;;;;;7.88;3.33;;;;;;;11.42;78.09;99623.44;5073752;28;20020;-73
2022/02/14 02:14:22;;;;;;;5.40;2.63;;;;;;;11.51;77.39;99617.25;5087964;28;20089;-73
2022/02/14 02:16:48;;;;;;;7.95;3.28;;;;;;;11.50;77.48;99616.34;5074654;28;20489;-73
2022/02/14 02:19:13;;;;;;;10.82;3.45;;;;;;;11.51;77.54;99611.97;5082134;28;20024;-73
2022/02/14 02:21:39;;;;;;;7.18;3.13;;;;;;;11.53;77.50;99611.09;5080760;28;20021;-73
2022/02/14 02:24:08;;;;;;;9.98;3.13;;;;;;;11.52;77.69;99597.94;5075706;28;20102;-73
2022/02/14 02:26:34;;;;;;;9.02;2.60;;;;;;;11.56;77.39;99597.03;5076222;28;20154;-72
2022/02/14 02:29:00;;;;;;;10.20;3.03;;;;;;;11.65;77.26;99599.56;5083360;28;20028;-73
2022/02/14 02:31:25;;;;;;;7.65;3.30;;;;;;;11.62;77.41;99595.22;5080783;28;20056;-73
2022/02/14 02:33:51;;;;;;;7.30;2.92;;;;;;;11.61;77.27;99584.66;5074799;28;20036;-73
2022/02/14 02:36:16;;;;;;;11.52;2.83;;;;;;;11.61;77.28;99580.28;5083792;28;20032;-74
2022/02/14 02:38:41;;;;;;;10.75;2.70;;;;;;;11.56;77.60;99573.31;5074649;28;20471;-73
2022/02/14 02:41:07;;;;;;;7.90;2.72;;;;;;;11.57;77.52;99575.03;5084572;28;20107;-74
2022/02/14 02:43:32;;;;;;;8.32;3.28;;;;;;;11.59;77.37;99581.19;5074652;28;20392;-73
2022/02/14 02:45:57;;;;;;;7.25;2.38;;;;;;;11.58;77.67;99574.16;5081167;28;20035;-73
2022/02/14 02:48:23;;;;;;;8.80;2.75;;;;;;;11.61;77.41;99560.94;5084028;28;20055;-72
2022/02/14 02:51:02;;;;;;;8.23;2.85;;;;;;;11.57;77.56;99559.22;5084105;28;20025;-73
2022/02/14 02:53:34;;;;;;;14.93;2.47;;;;;;;11.57;77.53;99567.13;5079195;28;20086;-73
2022/02/14 02:56:00;;;;;;;7.45;2.67;;;;;;;11.57;77.56;99559.22;5079925;28;20151;-74
2022/02/14 02:58:26;;;;;;;6.10;2.70;;;;;;;11.58;77.62;99576.78;5107683;28;20550;-73
2022/02/14 03:00:51;;;;;;;6.53;2.53;;;;;;;11.58;77.61;99551.31;5095652;28;20046;-74
2022/02/14 03:03:17;;;;;;;8.38;2.53;;;;;;;11.57;77.42;99560.13;5095850;28;20024;-74
2022/02/14 03:05:42;;;;;;;7.95;2.38;;;;;;;11.60;77.18;99552.19;5092676;28;20027;-74
2022/02/14 03:08:08;;;;;;;7.47;2.85;;;;;;;11.63;77.18;99532.84;5100108;28;20034;-74
2022/02/14 03:10:33;;;;;;;8.15;2.80;;;;;;;11.62;77.17;99536.34;5095623;28;20028;-74
2022/02/14 03:12:59;;;;;;;7.00;2.80;;;;;;;11.63;77.18;99538.97;5106950;28;20081;-74
2022/02/14 03:15:24;;;;;;;8.13;2.70;;;;;;;11.68;76.79;99522.25;5098852;28;20475;-75
2022/02/14 03:17:49;;;;;;;4.50;2.28;;;;;;;11.70;76.97;99523.97;5100353;28;20019;-71
2022/02/14 03:20:15;;;;;;;6.00;2.28;;;;;;;11.67;76.78;99507.34;5108342;28;20024;-72
2022/02/14 03:22:40;;;;;;;5.32;2.53;;;;;;;11.68;76.86;99525.78;5105373;28;20050;-73
2022/02/14 03:25:06;;;;;;;9.82;2.78;;;;;;;11.71;76.64;99525.75;5103779;28;20054;-72
2022/02/14 03:27:32;;;;;;;8.27;2.85;;;;;;;11.73;76.44;99502.00;5091957;28;20228;-72
2022/02/14 03:29:57;;;;;;;7.07;2.10;;;;;;;11.73;76.35;99508.13;5104430;28;20111;-72
2022/02/14 03:32:23;;;;;;;7.82;2.80;;;;;;;11.70;77.00;99513.44;5107039;28;20375;-73
2022/02/14 03:34:48;;;;;;;7.90;2.63;;;;;;;11.76;76.43;99521.31;5107664;28;20395;-72
2022/02/14 03:37:13;;;;;;;7.55;2.53;;;;;;;11.76;76.27;99508.13;5102077;28;20468;-72
2022/02/14 03:39:38;;;;;;;8.80;2.60;;;;;;;11.72;76.47;99506.41;5103683;28;20032;-72
2022/02/14 03:42:04;;;;;;;5.07;2.80;;;;;;;11.80;75.72;99499.31;5100918;28;20028;-72
2022/02/14 03:44:29;;;;;;;8.25;2.30;;;;;;;11.77;76.09;99519.53;5092038;28;20032;-72
2022/02/14 03:46:54;;;;;;;6.53;2.80;;;;;;;11.77;76.10;99535.34;5083801;28;20042;-72
2022/02/14 03:49:20;;;;;;;6.38;2.72;;;;;;;11.78;76.05;99506.34;5107365;28;20492;-72
2022/02/14 03:51:45;;;;;;;4.80;2.20;;;;;;;11.75;75.91;99501.09;5085362;28;20107;-72
2022/02/14 03:54:11;;;;;;;10.88;2.33;;;;;;;11.73;76.17;99492.31;5106552;28;20048;-73
2022/02/14 03:56:36;;;;;;;11.13;3.35;;;;;;;11.74;76.22;99504.63;5093464;28;20067;-72
2022/02/14 03:59:02;;;;;;;5.72;1.98;;;;;;;11.69;76.56;99492.38;5110986;28;20115;-72
2022/02/14 04:01:27;;;;;;;5.75;1.98;;;;;;;11.67;76.69;99486.28;5083618;28;20475;-72
2022/02/14 04:03:53;;;;;;;5.90;2.72;;;;;;;11.64;77.16;99481.91;5108685;28;20396;-73
2022/02/14 04:06:18;;;;;;;9.85;2.72;;;;;;;11.58;77.54;99479.31;5106043;28;20379;-73
2022/02/14 04:08:43;;;;;;;6.45;2.40;;;;;;;11.59;77.50;99470.53;5082645;28;20026;-72
2022/02/14 04:11:09;;;;;;;11.80;2.40;;;;;;;11.55;77.68;99479.34;5102262;28;20066;-72
2022/02/14 04:13:34;;;;;;;4.20;2.22;;;;;;;11.50;78.07;99479.38;5109869;28;20020;-72
2022/02/14 04:16:00;;;;;;;9.23;2.63;;;;;;;11.52;77.81;99461.81;5105720;28;20023;-72
2022/02/14 04:18:25;;;;;;;8.77;2.50;;;;;;;11.53;77.93;99470.56;5101136;28;20081;-73
2022/02/14 04:20:51;;;;;;;6.93;2.63;;;;;;;11.52;77.94;99458.31;5110905;28;20098;-73
2022/02/14 04:23:17;;;;;;;7.45;2.63;;;;;;;11.49;77.97;99504.00;5092349;28;20042;-72
2022/02/14 04:25:42;;;;;;;4.55;1.88;;;;;;;11.48;77.97;99475.91;5103393;28;20027;-73
2022/02/14 04:28:07;;;;;;;6.53;2.30;;;;;;;11.49;78.09;99475.03;5101548;28;20477;-73
2022/02/14 04:30:33;;;;;;;4.50;1.98;;;;;;;11.47;78.40;99527.69;5100689;28;20027;-73
2022/02/14 04:32:59;;;;;;;7.93;2.60;;;;;;;11.46;78.43;99468.00;5100501;28;20051;-73
2022/02/14 04:35:26;;;;;;;4.85;2.00;;;;;;;11.42;78.79;99482.09;5102603;28;20050;-72
2022/02/14 04:37:54;;;;;;;9.70;2.30;;;;;;;11.44;79.00;99501.38;5096786;28;20028;-73
2022/02/14 04:40:19;;;;;;;9.52;2.35;;;;;;;11.41;79.25;99475.06;5110753;28;20527;-72
2022/02/14 04:42:45;;;;;;;3.38;1.77;;;;;;;11.37;79.56;99489.16;5101393;28;20123;-73
2022/02/14 04:45:10;;;;;;;5.10;2.55;;;;;;;11.34;79.63;99483.94;5097457;28;20110;-73
2022/02/14 04:47:36;;;;;;;5.38;2.20;;;;;;;11.35;79.60;99479.53;5099308;28;20414;-73
2022/02/14 04:50:01;;;;;;;8.13;2.42;;;;;;;11.30;79.84;99480.44;5100270;28;20023;-72
2022/02/14 04:52:26;;;;;;;9.40;2.50;;;;;;;11.28;79.76;99507.66;5109076;28;20036;-72
2022/02/14 04:54:52;;;;;;;6.50;2.00;;;;;;;11.32;79.84;99490.94;5095701;28;20054;-73
2022/02/14 04:57:17;;;;;;;5.60;2.30;;;;;;;11.31;79.99;99478.66;5095123;28;20059;-73
2022/02/14 04:59:43;;;;;;;7.03;2.55;;;;;;;11.27;80.15;99476.94;5106824;28;20024;-73
2022/02/14 05:02:08;;;;;;;6.65;2.20;;;;;;;11.22;80.46;99482.25;5105726;28;20031;-73
2022/02/14 05:04:33;;;;;;;13.68;2.60;;;;;;;11.26;80.32;99522.63;5094790;28;20031;-73
2022/02/14 05:06:59;;;;;;;6.55;3.13;;;;;;;11.26;80.07;99475.22;5100798;28;20019;-73
2022/02/14 05:09:24;;;;;;;5.07;2.30;;;;;;;11.24;80.21;99482.25;5106667;28;20031;-73
2022/02/14 05:11:50;;;;;;;9.07;2.60;;;;;;;11.23;80.62;99496.28;5095881;28;20096;-72
2022/02/14 05:14:15;;;;;;;7.78;2.10;;;;;;;11.21;80.44;99487.53;5087781;28;20531;-73
2022/02/14 05:16:41;;;;;;;7.32;2.42;;;;;;;11.21;80.71;99477.00;5096234;28;20055;-73
2022/02/14 05:19:08;;;;;;;6.28;2.15;;;;;;;11.18;80.76;99477.00;5107371;28;20050;-73
2022/02/14 05:21:34;;;;;;;6.57;2.20;;;;;;;11.19;81.16;99510.38;5105334;28;20028;-73
2022/02/14 05:23:59;;;;;;;4.55;2.10;;;;;;;11.14;81.51;99513.91;5101782;28;20485;-73
2022/02/14 05:26:25;;;;;;;5.55;2.13;;;;;;;11.09;82.14;99502.53;5094728;28;20034;-73
2022/02/14 05:28:54;;;;;;;5.82;2.42;;;;;;;11.09;82.81;99520.97;5095011;28;20035;-72
2022/02/14 05:31:21;;;;;;;4.07;2.05;;;;;;;11.02;83.37;99519.25;5098102;28;20036;-73
2022/02/14 05:33:46;;;;;;;7.68;2.13;;;;;;;11.01;83.67;99512.25;5100594;27;21839;-73
2022/02/14 05:36:11;;;;;;;5.80;2.42;;;;;;;10.96;84.14;99514.06;5102659;28;20028;-73
2022/02/14 05:38:37;;;;;;;3.75;2.00;;;;;;;10.86;84.79;99517.63;5104407;28;20040;-73
2022/02/14 05:41:02;;;;;;;5.95;2.90;;;;;;;10.81;85.70;99509.72;5100784;28;20038;-72
2022/02/14 05:43:27;;;;;;;6.80;2.28;;;;;;;10.82;86.02;99522.00;5097510;28;20507;-73
2022/02/14 05:45:53;;;;;;;5.78;2.33;;;;;;;10.69;87.63;99530.84;5099832;28;20015;-73
2022/02/14 05:48:18;;;;;;;4.70;2.00;;;;;;;10.55;89.93;99533.56;5095263;28;20039;-73
2022/02/14 05:50:43;;;;;;;3.75;2.25;;;;;;;10.51;90.01;99540.56;5093230;28;20111;-73
2022/02/14 05:53:09;;;;;;;5.78;1.83;;;;;;;10.46;91.10;99561.66;5108885;28;20030;-73
2022/02/14 05:55:34;;;;;;;4.50;2.30;;;;;;;10.36;93.59;99573.06;5104727;28;20135;-73
2022/02/14 05:57:59;;;;;;;5.00;2.85;;;;;;;10.10;97.58;99589.75;5093714;28;20035;-73
2022/02/14 06:00:25;;;;;;;5.63;2.72;;;;;;;9.82;100.00;99595.91;5077580;28;20031;-73
2022/02/14 06:02:50;;;;;;;8.40;2.55;;;;;;;9.64;100.00;99605.53;5101829;28;20375;-73
2022/02/14 06:05:16;;;;;;;7.30;2.05;;;;;;;9.39;100.00;99600.28;5094291;28;20097;-73
2022/02/14 06:07:42;;;;;;;2.47;1.33;;;;;;;9.33;100.00;99604.66;5101757;28;20031;-73
2022/02/14 06:10:07;;;;;;;3.42;1.15;;;;;;;9.14;100.00;99612.47;5077040;28;20020;-73
2022/02/14 06:12:33;;;;;;;2.30;1.20;;;;;;;9.01;100.00;99614.19;5097885;27;20034;-73
2022/02/14 06:15:00;;;;;;;1.67;0.93;;;;;;;8.93;100.00;99611.53;5097078;28;20402;-72
2022/02/14 06:17:25;;;;;;;3.78;1.17;;;;;;;8.80;100.00;99615.00;5105098;28;20024;-73
2022/02/14 06:19:50;;;;;;;9.38;1.65;;;;;;;8.85;100.00;99625.53;5107559;28;20023;-76
2022/02/14 06:22:16;;;;;;;4.13;1.60;;;;;;;8.70;100.00;99624.56;5102454;28;20036;-76
2022/02/14 06:24:41;;;;;;;6.45;1.70;;;;;;;8.62;100.00;99626.28;5103446;28;20103;-76
2022/02/14 06:27:07;;;;;;;6.20;2.20;;;;;;;8.60;100.00;99623.66;5099413;28;20038;-75
2022/02/14 06:29:32;;;;;;;5.88;2.90;;;;;;;8.58;100.00;99635.00;5094280;28;20090;-73
2022/02/14 06:31:58;;;;;;;5.55;2.45;;;;;;;8.60;100.00;99641.16;5101402;28;20031;-74
2022/02/14 06:34:23;;;;;;;5.72;2.83;;;;;;;8.57;100.00;99649.88;5099737;28;20028;-73
2022/02/14 06:36:48;;;;;;;10.75;3.13;;;;;;;8.44;100.00;99641.03;5101108;28;20058;-73
2022/02/14 06:39:14;;;;;;;6.60;3.45;;;;;;;8.48;100.00;99648.94;5077262;28;20038;-73
2022/02/14 06:41:39;;;;;;;8.80;3.22;;;;;;;8.42;100.00;99655.88;5085668;28;20031;-74
2022/02/14 06:44:05;;;;;;;8.85;3.47;;;;;;;8.38;100.00;99661.06;5103613;28;20031;-75
2022/02/14 06:46:30;;;;;;;10.10;3.88;;;;;;;8.38;100.00;99661.97;5104366;28;20031;-74
2022/02/14 06:48:56;;;;;;;6.38;3.58;;;;;;;8.34;100.00;99677.66;5076388;28;20445;-74
2022/02/14 06:51:21;;;;;;;7.50;4.03;;;;;;;8.25;100.00;99670.63;5082831;28;20024;-73
2022/02/14 06:53:47;;;;;;;8.45;4.03;;;;;;;8.25;100.00;99676.72;5096140;28;20169;-73
2022/02/14 06:56:13;;;;;;;11.50;4.28;;;;;;;8.23;100.00;99686.34;5101680;28;20122;-74
2022/02/14 06:58:40;;;;;;;7.10;4.40;;;;;;;8.27;100.00;99698.59;5095947;28;20031;-74
2022/02/14 07:01:07;;;;;;;12.40;4.63;;;;;;;8.24;100.00;99700.31;5093882;28;20478;-74
2022/02/14 07:03:33;;;;;;;8.93;4.20;;;;;;;8.21;100.00;99700.28;5080276;28;20027;-74
2022/02/14 07:05:58;;;;;;;9.52;4.80;;;;;;;8.16;100.00;99708.09;5105365;28;20138;-74
2022/02/14 07:08:24;;;;;;;11.50;4.38;;;;;;;8.15;100.00;99714.19;5096931;28;20161;-72
2022/02/14 07:10:49;;;;;;;6.35;4.20;;;;;;;8.14;100.00;99712.47;5103073;28;20032;-72
2022/02/14 07:13:15;;;;;;;10.25;3.80;;;;;;;8.16;100.00;99710.72;5080354;28;20032;-72
2022/02/14 07:15:40;;;;;;;11.07;3.60;;;;;;;8.08;100.00;99713.28;5097629;28;20106;-71
2022/02/14 07:18:11;;;;;;;7.40;3.63;;;;;;;8.13;100.00;99725.56;5105071;28;20480;-72
2022/02/14 07:20:37;;;;;;;6.85;3.35;;;;;;;8.12;100.00;99721.16;5099030;28;20019;-73
2022/02/14 07:23:02;;;;;;;10.20;3.42;;;;;;;8.07;100.00;99726.34;5092871;28;20437;-73
2022/02/14 07:25:27;;;;;;;10.77;3.72;;;;;;;8.08;100.00;99729.00;5093933;28;20098;-74
2022/02/14 07:27:53;;;;;;;11.02;4.38;;;;;;;8.05;100.00;99728.97;5100608;28;20118;-73
2022/02/14 07:30:19;;;;;;;15.77;4.30;;;;;;;8.04;100.00;99740.28;5084174;28;20026;-72
2022/02/14 07:32:44;;;;;;;15.00;3.95;;;;;;;8.03;100.00;99741.19;5077616;28;20044;-72
2022/02/14 07:35:10;;;;;;;14.73;3.30;;;;;;;8.04;100.00;99748.16;5104409;28;20020;-72
2022/02/14 07:37:36;;;;;;;11.50;3.22;;;;;;;8.04;100.00;99756.03;5096125;28;20388;-73
2022/02/14 07:40:02;;;;;;;8.57;2.72;;;;;;;8.10;100.00;99758.72;5099290;28;20020;-73
2022/02/14 07:42:28;;;;;;;13.73;2.67;;;;;;;8.06;100.00;99766.53;5099881;28;20456;-74
2022/02/14 07:44:53;;;;;;;8.93;2.35;;;;;;;8.07;100.00;99760.41;5097710;28;20030;-74
2022/02/14 07:47:19;;;;;;;17.88;2.97;;;;;;;8.10;100.00;99769.19;5096903;28;20058;-74
2022/02/14 07:49:44;;;;;;;9.18;2.17;;;;;;;8.13;100.00;99772.72;5096623;28;20108;-75
2022/02/14 07:52:10;;;;;;;9.93;1.90;;;;;;;8.08;100.00;99789.28;5104138;28;20053;-75
2022/02/14 07:54:35;;;;;;;12.88;1.60;;;;;;;8.15;100.00;99791.94;5082391;28;20044;-75
2022/02/14 07:57:00;;;;;;;12.40;1.80;;;;;;;8.15;100.00;99790.19;5103409;28;20076;-75
2022/02/14 07:59:26;;;;;;;7.10;1.48;;;;;;;8.14;100.00;99790.16;5104712;28;20422;-74
2022/02/14 08:01:52;;;;;;;14.90;2.22;;;;;;;8.20;100.00;99793.72;5083441;28;20380;-74
2022/02/14 08:04:18;;;;;;;12.80;1.88;;;;;;;8.18;100.00;99797.19;5103741;28;20028;-74
2022/02/14 08:06:43;;;;;;;14.25;2.30;;;;;;;8.23;100.00;99804.25;5088796;28;20027;-73
2022/02/14 08:09:11;;;;;;;12.15;1.80;;;;;;;8.24;100.00;99805.13;5104981;27;20058;-74
2022/02/14 08:11:36;;;;;;;10.25;2.38;;;;;;;8.24;100.00;99800.75;5090101;27;20037;-73
2022/02/14 08:14:02;;;;;;;13.70;2.28;;;;;;;8.28;100.00;99793.81;5099130;27;20055;-73
2022/02/14 08:16:27;;;;;;;13.65;1.58;;;;;;;8.28;100.00;99793.81;5106643;27;20031;-74
2022/02/14 08:18:52;;;;;;;9.18;2.00;;;;;;;8.36;100.00;99802.63;5103449;28;20076;-73
2022/02/14 08:21:18;;;;;;;8.85;2.95;;;;;;;8.39;100.00;99813.13;5087009;28;20365;-74
2022/02/14 08:23:43;;;;;;;17.95;2.25;;;;;;;8.46;100.00;99795.72;5085872;27;20055;-73
2022/02/14 08:26:09;;;;;;;8.20;2.10;;;;;;;8.47;100.00;99812.34;5109745;27;20041;-74
2022/02/14 08:28:34;;;;;;;7.70;1.83;;;;;;;8.47;100.00;99804.50;5112135;27;20467;-73
2022/02/14 08:31:00;;;;;;;7.15;2.50;;;;;;;8.51;100.00;99816.75;5093872;28;20472;-73
2022/02/14 08:33:25;;;;;;;6.95;2.08;;;;;;;8.53;100.00;99817.63;5113385;27;20036;-75
2022/02/14 08:35:51;;;;;;;9.32;2.40;;;;;;;8.49;100.00;99808.00;5103921;28;20467;-76
2022/02/14 08:38:17;;;;;;;5.00;2.10;;;;;;;8.54;100.00;99816.78;5105491;27;20032;-75
2022/02/14 08:40:42;;;;;;;8.63;3.38;;;;;;;8.54;100.00;99816.78;5102370;27;20020;-75
2022/02/14 08:43:08;;;;;;;11.35;3.45;;;;;;;8.56;100.00;99825.53;5102453;28;20103;-75
2022/02/14 08:45:33;;;;;;;5.65;3.30;;;;;;;8.59;100.00;99820.31;5100202;27;20176;-75
2022/02/14 08:47:59;;;;;;;8.38;3.28;;;;;;;8.60;100.00;99808.97;5084913;28;20081;-74
2022/02/14 08:50:25;;;;;;;8.65;3.30;;;;;;;8.58;100.00;99824.66;5098045;27;20049;-75
2022/02/14 08:52:51;;;;;;;9.35;3.83;;;;;;;8.68;100.00;99816.88;5084190;28;20118;-76
2022/02/14 08:55:17;;;;;;;7.85;4.38;;;;;;;8.75;100.00;99830.06;5105280;28;20240;-75
2022/02/14 08:57:43;;;;;;;9.55;4.25;;;;;;;8.76;100.00;99826.59;5103087;28;20066;-76
2022/02/14 09:00:09;;;;;;;7.25;3.90;;;;;;;8.80;100.00;99826.59;5099744;28;20024;-76
2022/02/14 09:02:35;;;;;;;7.70;3.58;;;;;;;8.86;100.00;99835.38;5092667;28;20023;-72
2022/02/14 09:05:01;;;;;;;6.13;3.33;;;;;;;8.91;100.00;99838.03;5100366;27;20077;-74
2022/02/14 09:07:26;;;;;;;5.63;3.25;;;;;;;8.96;100.00;99840.69;5106301;27;20110;-74
2022/02/14 09:09:52;;;;;;;11.70;3.95;;;;;;;8.94;100.00;99848.56;5087580;28;20094;-74
2022/02/14 09:12:19;;;;;;;8.52;3.72;;;;;;;8.91;100.00;99844.19;5100134;27;20051;-74
2022/02/14 09:14:45;;;;;;;7.10;3.40;;;;;;;8.92;100.00;99850.28;5102306;27;20062;-74
2022/02/14 09:17:11;;;;;;;10.73;3.50;;;;;;;8.97;100.00;99852.94;5091273;28;20055;-74
2022/02/14 09:19:36;;;;;;;6.22;3.35;;;;;;;8.98;100.00;99845.09;5107538;27;20425;-75
2022/02/14 09:22:02;;;;;;;7.70;3.30;;;;;;;8.98;100.00;99859.94;5086075;27;20114;-75
2022/02/14 09:24:27;;;;;;;9.68;3.65;;;;;;;8.97;100.00;99880.06;5098851;28;20055;-74
2022/02/14 09:26:53;;;;;;;5.10;3.20;;;;;;;8.93;100.00;99873.91;5104831;27;20039;-74
2022/02/14 09:29:19;;;;;;;7.28;3.25;;;;;;;8.87;100.00;99873.88;5105900;27;20043;-74
2022/02/14 09:31:44;;;;;;;7.00;3.03;;;;;;;8.81;100.00;99867.69;5103877;27;20030;-74
2022/02/14 09:34:10;;;;;;;8.30;3.53;;;;;;;8.88;100.00;99880.84;5097793;27;20448;-74
2022/02/14 09:36:36;;;;;;;5.35;3.35;;;;;;;8.84;100.00;99894.81;5089079;28;20035;-74
2022/02/14 09:39:05;;;;;;;5.60;3.35;;;;;;;8.89;100.00;99897.50;5102827;28;20039;-73
2022/02/14 09:41:31;;;;;;;8.93;3.13;;;;;;;8.87;100.00;99893.97;5084956;27;20032;-75
2022/02/14 09:43:57;;;;;;;9.20;2.90;;;;;;;8.86;100.00;99900.09;5104546;27;20043;-75
2022/02/14 09:46:22;;;;;;;10.25;3.53;;;;;;;8.82;100.00;99895.66;5080676;28;20103;-75
2022/02/14 09:48:48;;;;;;;9.50;2.70;;;;;;;8.87;100.00;99908.00;5112210;27;20110;-74
2022/02/14 09:51:16;;;;;;;8.13;2.30;;;;;;;8.92;100.00;99908.00;5086213;28;20016;-75
2022/02/14 09:53:41;;;;;;;9.05;1.90;;;;;;;8.94;100.00;99908.91;5105075;27;20019;-74
2022/02/14 09:56:09;;;;;;;8.43;1.85;;;;;;;9.03;100.00;99916.84;5099714;27;20138;-74
2022/02/14 09:58:34;;;;;;;6.80;1.83;;;;;;;9.00;100.00;99921.19;5115633;27;20033;-73
2022/02/14 10:01:00;;;;;;;6.25;1.50;;;;;;;9.01;100.00;99926.47;5098000;27;20020;-74
2022/02/14 10:03:25;;;;;;;10.55;1.52;;;;;;;9.04;100.00;99918.59;5110278;27;20055;-74
2022/02/14 10:05:53;;;;;;;11.95;1.90;;;;;;;9.08;100.00;99944.00;5092106;27;20093;-74
2022/02/14 10:08:38;;;;;;;11.95;2.03;;;;;;;9.11;100.00;99936.16;5113540;27;20078;-75
2022/02/14 10:11:13;;;;;;;11.82;1.95;;;;;;;9.11;99.74;99915.19;5098745;27;20024;-74
2022/02/14 10:13:39;;;;;;;10.85;1.75;;;;;;;9.22;99.63;99927.47;5106562;27;20040;-74
2022/02/14 10:16:13;;;;;;;10.18;1.90;;;;;;;9.37;98.48;99921.47;5107431;27;20455;-74
2022/02/14 10:18:40;;;;;;;12.15;2.00;;;;;;;9.29;97.52;99918.78;5100035;27;20032;-75
2022/02/14 10:21:18;;;;;;;7.32;1.55;;;;;;;9.17;98.08;99924.84;5105933;27;20483;-75
2022/02/14 10:24:16;;;;;;;14.38;2.10;;;;;;;9.18;98.42;99925.69;5105211;27;20809;-75
2022/02/14 10:26:46;;;;;;;9.48;1.63;;;;;;;9.27;96.30;99931.03;5043080;27;20087;-74
2022/02/14 10:29:11;;;;;;;13.93;1.60;;;;;;;9.34;95.81;99940.69;5100324;28;20039;-74
2022/02/14 10:31:53;;;;;;;20.30;2.17;;;;;;;9.29;95.43;99942.41;5102424;27;20035;-74
2022/02/14 10:34:32;;;;;;;8.50;1.48;;;;;;;9.37;95.92;99945.09;5101200;27;20333;-73
2022/02/14 10:36:57;;;;;;;6.53;1.50;;;;;;;9.48;95.27;99956.53;5098333;28;20035;-75
2022/02/14 10:39:25;;;;;;;14.63;1.80;;;;;;;9.52;95.63;99953.09;5102548;27;20036;-74
2022/02/14 10:42:07;;;;;;;10.73;1.98;;;;;;;9.43;95.30;99964.38;5078869;28;20062;-74
2022/02/14 10:47:25;;;;;;;13.32;1.40;;;;;;;9.53;94.48;99964.47;5100114;27;20055;-75
2022/02/14 10:49:59;;;;;;;9.63;1.85;;;;;;;9.41;93.71;99968.78;5086010;28;20034;-74
2022/02/14 10:52:30;;;;;;;8.13;1.60;;;;;;;9.42;93.34;99970.50;5095370;27;20016;-76
2022/02/14 10:54:56;;;;;;;9.98;1.73;;;;;;;9.36;92.42;99961.69;5101038;27;20060;-74
2022/02/14 10:57:27;;;;;;;7.25;1.33;;;;;;;9.55;91.98;99991.59;5098345;27;20046;-76
2022/02/14 11:00:15;;;;;;;4.93;1.63;;;;;;;9.63;91.61;99995.19;5082813;27;20029;-73
2022/02/14 11:02:43;;;;;;;9.57;1.63;;;;;;;10.06;88.15;99970.88;5096135;28;20388;-74
2022/02/14 11:05:10;;;;;;;8.05;1.20;;;;;;;10.58;85.93;99963.22;5106275;27;20320;-75
2022/02/14 11:07:37;;;;;;;9.35;1.20;;;;;;;11.13;82.16;99964.13;5106050;27;20047;-76
2022/02/14 11:10:04;;;;;;;5.35;1.63;;;;;;;11.79;80.71;99968.47;5079135;28;20827;-75
2022/02/14 11:12:35;;;;;;;9.95;1.58;;;;;;;12.42;78.06;99981.41;5084272;28;20475;-76
2022/02/14 11:15:04;;;;;;;7.78;1.50;;;;;;;12.76;74.84;99972.44;5098423;28;20027;-76
2022/02/14 11:17:32;;;;;;;10.02;2.10;;;;;;;13.26;72.56;99988.81;5098574;28;20038;-75
2022/02/14 11:20:03;;;;;;;5.93;1.42;;;;;;;12.69;72.19;99978.66;5101451;28;20019;-75
2022/02/14 11:22:33;;;;;;;6.32;1.20;;;;;;;12.16;74.32;99970.13;5110873;28;20424;-76
2022/02/14 11:25:17;;;;;;;5.03;1.00;;;;;;;12.08;75.22;99980.69;5104896;28;20046;-76
2022/02/14 11:27:58;;;;;;;;;;;;;;;11.50;76.37;99997.50;5098816;28;20468;-75
2022/02/14 11:30:27;;;;;;;3.90;1.50;;;;;;;10.77;77.82;100003.59;5089988;28;19916;-78
2022/02/14 11:33:09;;;;;;;7.35;1.15;;;;;;;11.06;76.45;100000.13;5099236;28;20031;-75